Time;durP1;ratioP1;P1;durP2;ratioP2;P2;SDS_P1;SDS_P2;PMS_P1;PMS_P2;Temp;Humidity;BMP_temperature;BMP_pressure;BME280_temperature;BME280_humidity;BME280_pressure;Samples;Min_cycle;Max_cycle;Signal;HPM_P1;HPM_P2
2023/03/25 00:01:46;;;;;;;;;;;;;;;11.70;100.00;98366.44;5038004;28;20373;-48
2023/03/25 00:04:12;;;;;;;;;;;;;;;11.72;100.00;98438.56;5036416;28;20290;-49
2023/03/25 00:06:37;;;;;;;;;;;;;;;11.67;100.00;98456.00;5037321;28;19912;-48
2023/03/25 00:09:03;;;;;;;;;;;;;;;11.81;100.00;98470.88;5037705;28;19927;-50
2023/03/25 00:11:28;;;;;;;;;;;;;;;11.73;100.00;98477.22;5038086;28;20248;-50
2023/03/25 00:13:54;;;;;;;;;;;;;;;11.80;100.00;98518.22;5037204;28;19917;-49
2023/03/25 00:16:19;;;;;;;;;;;;;;;10.99;100.00;98502.78;5037279;28;19944;-49
2023/03/25 00:18:46;;;;;;;;;;;;;;;11.73;100.00;98533.97;5038162;28;19983;-49
2023/03/25 00:21:12;;;;;;;;;;;;;;;11.18;100.00;98541.50;5037176;28;20004;-49
2023/03/25 00:23:37;;;;;;;;;;;;;;;11.62;100.00;98561.97;5036305;28;20003;-50
2023/03/25 00:26:02;;;;;;;;;;;;;;;11.62;100.00;98554.22;5037339;28;19942;-50
2023/03/25 00:28:29;;;;;;;;;;;;;;;11.35;100.00;98547.69;5037034;28;19917;-49
2023/03/25 00:30:57;;;;;;;;;;;;;;;11.66;100.00;98557.53;5037479;28;20127;-49
2023/03/25 00:33:22;;;;;;;;;;;;;;;11.16;100.00;98532.16;5037335;28;19968;-49
2023/03/25 00:35:51;;;;;;;;;;;;;;;11.51;100.00;98530.66;5036962;28;20289;-49
2023/03/25 00:38:17;;;;;;;;;;;;;;;11.17;100.00;98508.06;5036354;28;19916;-48
2023/03/25 00:40:42;;;;;;;;;;;;;;;11.29;100.00;98518.69;5036815;28;19917;-49
2023/03/25 00:43:08;;;;;;;;;;;;;;;10.89;100.00;98473.97;5037215;28;20436;-48
2023/03/25 00:45:34;;;;;;;;;;;;;;;11.37;100.00;98512.38;5034207;28;20735;-49
2023/03/25 00:47:59;;;;;;;;;;;;;;;11.33;100.00;98474.72;5037240;28;19934;-48
2023/03/25 00:50:25;;;;;;;;;;;;;;;11.51;100.00;98477.31;5037539;28;19920;-49
2023/03/25 00:52:52;;;;;;;;;;;;;;;11.49;100.00;98468.84;5036362;28;20523;-55
2023/03/25 00:55:17;;;;;;;;;;;;;;;11.28;100.00;98455.13;5036082;28;19927;-49
2023/03/25 00:57:42;;;;;;;;;;;;;;;11.71;100.00;98479.03;5036929;28;20453;-47
2023/03/25 01:00:10;;;;;;;;;;;;;;;11.39;100.00;98462.41;5035786;28;20401;-48
2023/03/25 01:02:35;;;;;;;;;;;;;;;10.94;100.00;98434.31;5037021;28;20007;-47
2023/03/25 01:05:01;;;;;;;;;;;;;;;11.40;100.00;98415.06;5035430;28;20042;-49
2023/03/25 01:07:28;;;;;;;;;;;;;;;11.59;100.00;98446.06;5037087;28;20021;-49
2023/03/25 01:09:53;;;;;;;;;;;;;;;11.26;100.00;98431.16;5034716;28;19921;-49
2023/03/25 01:12:19;;;;;;;;;;;;;;;11.27;100.00;98427.69;5036065;28;20302;-49
2023/03/25 01:14:44;;;;;;;;;;;;;;;10.95;100.00;98394.75;5034298;28;20027;-49
2023/03/25 01:17:09;;;;;;;;;;;;;;;11.25;100.00;98429.50;5036476;28;19920;-51
2023/03/25 01:19:35;;;;;;;;;;;;;;;11.26;100.00;98436.31;5036746;28;19963;-51
2023/03/25 01:22:00;;;;;;;;;;;;;;;11.13;100.00;98424.91;5036076;28;19924;-48
2023/03/25 01:24:25;;;;;;;;;;;;;;;11.66;100.00;98439.72;5035986;28;19932;-50
2023/03/25 01:26:51;;;;;;;;;;;;;;;11.14;100.00;98390.47;5036383;28;20178;-48
2023/03/25 01:29:16;;;;;;;;;;;;;;;11.67;100.00;98399.28;5034759;28;20358;-49
2023/03/25 01:31:42;;;;;;;;;;;;;;;11.57;100.00;98383.38;5033594;28;20453;-49
2023/03/25 01:34:07;;;;;;;;;;;;;;;11.01;100.00;98327.50;5033606;28;19947;-48
2023/03/25 01:36:34;;;;;;;;;;;;;;;11.49;100.00;98354.53;5036496;28;20433;-49
2023/03/25 01:39:00;;;;;;;;;;;;;;;11.88;100.00;98309.75;5035973;28;20409;-49
2023/03/25 01:41:26;;;;;;;;;;;;;;;10.83;100.00;98299.09;5036825;28;19920;-47
2023/03/25 01:44:03;;;;;;;;;;;;;;;11.18;100.00;98321.59;5033070;28;19921;-48
2023/03/25 01:46:28;;;;;;;;;;;;;;;11.10;100.00;98301.31;5036429;28;20080;-48
2023/03/25 01:48:54;;;;;;;;;;;;;;;11.72;100.00;98310.47;5036441;28;19923;-49
2023/03/25 01:51:20;;;;;;;;;;;;;;;11.50;100.00;98302.91;5034453;28;20443;-49
2023/03/25 01:53:45;;;;;;;;;;;;;;;10.91;100.00;98267.81;5033303;28;19970;-50
2023/03/25 01:56:13;;;;;;;;;;;;;;;12.07;100.00;98279.56;5033610;28;19937;-48
2023/03/25 01:58:38;;;;;;;;;;;;;;;11.70;100.00;98250.38;5033986;28;20479;-50
2023/03/25 02:01:03;;;;;;;;;;;;;;;11.09;100.00;98230.91;5035041;28;19916;-49
2023/03/25 02:03:29;;;;;;;;;;;;;;;11.23;100.00;98275.81;5032679;28;19966;-49
2023/03/25 02:05:55;;;;;;;;;;;;;;;11.95;100.00;98262.09;5032267;28;19921;-48
2023/03/25 02:08:20;;;;;;;;;;;;;;;12.08;100.00;98229.59;5035925;28;19927;-48
2023/03/25 02:10:46;;;;;;;;;;;;;;;12.25;100.00;98191.78;5035592;28;19925;-49
2023/03/25 02:13:11;;;;;;;;;;;;;;;12.24;100.00;98157.38;5032689;28;19925;-49
2023/03/25 02:15:58;;;;;;;;;;;;;;;11.41;100.00;98140.09;5033634;28;19921;-48
2023/03/25 02:18:43;;;;;;;;;;;;;;;11.39;100.00;98229.56;5028176;28;20209;-48
2023/03/25 02:21:08;;;;;;;;;;;;;;;11.54;100.00;98270.09;5034724;28;19916;-49
2023/03/25 02:23:40;;;;;;;;;;;;;;;11.51;100.00;98250.41;5033228;28;20406;-49
2023/03/25 02:26:24;;;;;;;;;;;;;;;10.94;100.00;98267.69;5034779;28;19927;-49
2023/03/25 02:28:49;;;;;;;;;;;;;;;11.17;100.00;98310.44;5036306;28;19975;-48
2023/03/25 02:31:24;;;;;;;;;;;;;;;11.55;100.00;98310.41;5034481;28;20352;-48
2023/03/25 02:34:08;;;;;;;;;;;;;;;11.13;100.00;98308.94;5033137;28;19921;-49
2023/03/25 02:36:36;;;;;;;;;;;;;;;11.37;100.00;98290.66;5035146;28;20354;-50
2023/03/25 02:39:01;;;;;;;;;;;;;;;11.23;100.00;98323.06;5035064;28;19943;-50
2023/03/25 02:41:40;;;;;;;;;;;;;;;11.34;100.00;98327.72;5035748;28;20305;-48
2023/03/25 02:44:05;;;;;;;;;;;;;;;10.79;100.00;98279.53;5029646;28;19924;-49
2023/03/25 02:46:31;;;;;;;;;;;;;;;11.11;100.00;98269.50;5035341;28;20270;-49
2023/03/25 02:49:00;;;;;;;;;;;;;;;11.13;100.00;98264.25;5034902;28;19917;-52
2023/03/25 02:51:29;;;;;;;;;;;;;;;11.31;100.00;98227.31;5033975;28;19916;-50
2023/03/25 02:53:55;;;;;;;;;;;;;;;11.60;100.00;98228.50;5034459;28;19927;-51
2023/03/25 02:56:24;;;;;;;;;;;;;;;10.87;100.00;98169.22;5032442;28;20386;-48
2023/03/25 02:58:50;;;;;;;;;;;;;;;11.66;100.00;98165.50;5033608;28;20384;-49
2023/03/25 03:01:15;;;;;;;;;;;;;;;11.75;100.00;98144.41;5032970;28;19916;-49
2023/03/25 03:03:40;;;;;;;;;;;;;;;11.52;100.00;98106.88;5034893;28;19974;-49
2023/03/25 03:06:06;;;;;;;;;;;;;;;11.03;100.00;98093.81;5033951;28;20031;-49
2023/03/25 03:08:44;;;;;;;;;;;;;;;11.71;100.00;98128.22;5033862;28;20400;-55
2023/03/25 03:11:13;;;;;;;;;;;;;;;11.62;100.00;98092.59;5034922;28;19963;-51
2023/03/25 03:13:39;;;;;;;;;;;;;;;10.92;100.00;98083.19;5032891;28;19944;-49
2023/03/25 03:16:24;;;;;;;;;;;;;;;11.23;100.00;98091.09;5034805;28;20030;-50
2023/03/25 03:18:51;;;;;;;;;;;;;;;11.51;100.00;98087.13;5035453;28;20019;-50
2023/03/25 03:21:22;;;;;;;;;;;;;;;11.88;100.00;98086.13;5033586;28;19916;-49
2023/03/25 03:23:50;;;;;;;;;;;;;;;10.68;100.00;98065.44;5032897;28;19917;-50
2023/03/25 03:26:28;;;;;;;;;;;;;;;11.26;100.00;98101.25;5033565;28;19916;-49
2023/03/25 03:28:59;;;;;;;;;;;;;;;10.75;100.00;98105.44;5034695;28;19917;-50
2023/03/25 03:31:27;;;;;;;;;;;;;;;10.59;100.00;98125.91;5032455;28;19921;-49
2023/03/25 03:33:56;;;;;;;;;;;;;;;10.16;100.00;98193.88;5033818;28;19917;-49
2023/03/25 03:36:23;;;;;;;;;;;;;;;10.63;100.00;98286.25;5033610;28;20142;-49
2023/03/25 03:38:50;;;;;;;;;;;;;;;10.87;100.00;98294.63;5033380;28;19916;-49
2023/03/25 03:41:17;;;;;;;;;;;;;;;11.05;100.00;98321.31;5034054;28;19920;-49
2023/03/25 03:43:49;;;;;;;;;;;;;;;10.93;100.00;98329.59;5030416;28;19928;-48
2023/03/25 03:46:15;;;;;;;;;;;;;;;10.72;100.00;98336.50;5034691;28;19966;-48
2023/03/25 03:48:41;;;;;;;;;;;;;;;10.43;100.00;98331.69;5033562;28;20388;-49
2023/03/25 03:51:17;;;;;;;;;;;;;;;10.37;100.00;98362.84;5032922;28;20016;-51
2023/03/25 03:53:53;;;;;;;;;;;;;;;10.59;100.00;98373.09;5033935;28;19921;-50
2023/03/25 03:56:20;;;;;;;;;;;;;;;11.06;100.00;98366.78;5036315;28;20134;-48
2023/03/25 03:58:47;;;;;;;;;;;;;;;10.55;100.00;98325.19;5037686;28;20063;-49
2023/03/25 04:01:16;;;;;;;;;;;;;;;11.87;100.00;98354.50;5036600;28;19970;-49
2023/03/25 04:04:07;;;;;;;;;;;;;;;11.09;100.00;98261.00;5036048;28;20312;-48
2023/03/25 04:06:34;;;;;;;;;;;;;;;11.05;100.00;98264.63;5036192;28;19920;-49
2023/03/25 04:09:26;;;;;;;;;;;;;;;11.20;100.00;98279.38;5036070;28;19920;-51
2023/03/25 04:12:11;;;;;;;;;;;;;;;10.63;100.00;98255.34;5036733;28;19979;-48
2023/03/25 04:14:36;;;;;;;;;;;;;;;10.55;100.00;98247.13;5035239;28;19924;-49
2023/03/25 04:17:03;;;;;;;;;;;;;;;10.72;100.00;98234.34;5036730;28;19970;-49
2023/03/25 04:19:28;;;;;;;;;;;;;;;10.89;100.00;98203.50;5037818;28;19987;-51
2023/03/25 04:21:54;;;;;;;;;;;;;;;10.94;100.00;98223.06;5035760;28;19943;-48
2023/03/25 04:24:19;;;;;;;;;;;;;;;11.52;100.00;98222.91;5034622;28;20474;-48
2023/03/25 04:26:45;;;;;;;;;;;;;;;10.97;100.00;98192.00;5038279;28;20277;-49
2023/03/25 04:29:12;;;;;;;;;;;;;;;10.75;100.00;98212.75;5036482;28;19920;-50
2023/03/25 04:31:45;;;;;;;;;;;;;;;10.66;100.00;98265.50;5038105;28;19923;-49
2023/03/25 04:34:10;;;;;;;;;;;;;;;10.22;100.00;98287.09;5036903;28;20334;-48
2023/03/25 04:36:41;;;;;;;;;;;;;;;9.96;100.00;98331.88;5038067;28;19928;-50
2023/03/25 04:39:06;;;;;;;;;;;;;;;10.55;100.00;98419.63;5036700;28;19921;-48
2023/03/25 04:41:32;;;;;;;;;;;;;;;10.46;100.00;98447.41;5037477;28;19916;-49
2023/03/25 04:43:57;;;;;;;;;;;;;;;10.18;100.00;98455.34;5034996;28;20138;-48
2023/03/25 04:46:23;;;;;;;;;;;;;;;10.56;100.00;98506.25;5037578;28;20019;-48
2023/03/25 04:48:48;;;;;;;;;;;;;;;10.22;100.00;98492.13;5037489;28;20285;-49
2023/03/25 04:51:14;;;;;;;;;;;;;;;10.72;100.00;98533.09;5036923;28;19917;-47
2023/03/25 04:53:39;;;;;;;;;;;;;;;10.66;100.00;98502.41;5035399;28;20023;-47
2023/03/25 04:56:05;;;;;;;;;;;;;;;10.48;100.00;98503.16;5036480;28;20310;-47
2023/03/25 04:58:30;;;;;;;;;;;;;;;10.32;100.00;98514.03;5037076;28;19921;-49
2023/03/25 05:00:56;;;;;;;;;;;;;;;11.23;100.00;98573.06;5037652;28;19921;-46
2023/03/25 05:03:24;;;;;;;;;;;;;;;10.43;100.00;98511.06;5036317;28;19964;-50
2023/03/25 05:05:50;;;;;;;;;;;;;;;10.70;100.00;98509.13;5035492;28;19924;-47
2023/03/25 05:08:15;;;;;;;;;;;;;;;11.20;100.00;98503.63;5036299;28;20703;-47
2023/03/25 05:10:42;;;;;;;;;;;;;;;10.41;100.00;98449.31;5036758;28;19967;-48
2023/03/25 05:13:07;;;;;;;;;;;;;;;10.61;100.00;98476.03;5036605;28;19916;-48
2023/03/25 05:15:38;;;;;;;;;;;;;;;10.59;100.00;98410.88;5035484;28;19975;-48
2023/03/25 05:18:11;;;;;;;;;;;;;;;10.96;100.00;98391.28;5036648;28;20429;-47
2023/03/25 05:20:38;;;;;;;;;;;;;;;10.69;100.00;98360.66;5036182;28;19921;-48
2023/03/25 05:23:04;;;;;;;;;;;;;;;10.70;100.00;98382.94;5035024;28;19999;-48
2023/03/25 05:25:33;;;;;;;;;;;;;;;10.63;100.00;98366.06;5035961;28;20416;-48
2023/03/25 05:27:58;;;;;;;;;;;;;;;11.03;100.00;98379.81;5036280;28;19940;-47
2023/03/25 05:30:24;;;;;;;;;;;;;;;11.24;100.00;98329.03;5036189;28;19982;-48
2023/03/25 05:32:52;;;;;;;;;;;;;;;11.09;100.00;98305.63;5036059;28;19916;-49
2023/03/25 05:35:17;;;;;;;;;;;;;;;10.65;100.00;98297.28;5033189;28;20499;-47
2023/03/25 05:37:42;;;;;;;;;;;;;;;10.51;100.00;98274.72;5036764;28;19920;-48
2023/03/25 05:40:09;;;;;;;;;;;;;;;10.84;100.00;98285.28;5035615;28;19917;-48
2023/03/25 05:42:36;;;;;;;;;;;;;;;10.49;100.00;98252.53;5036100;28;19921;-48
2023/03/25 05:45:01;;;;;;;;;;;;;;;10.31;100.00;98295.34;5033493;28;19924;-50
2023/03/25 05:47:27;;;;;;;;;;;;;;;10.36;100.00;98314.84;5036088;28;19916;-49
2023/03/25 05:49:53;;;;;;;;;;;;;;;11.13;100.00;98326.97;5035602;28;19917;-47
2023/03/25 05:52:19;;;;;;;;;;;;;;;11.37;100.00;98267.44;5035378;28;19928;-47
2023/03/25 05:54:45;;;;;;;;;;;;;;;10.77;100.00;98253.00;5033915;28;20348;-50
2023/03/25 05:57:11;;;;;;;;;;;;;;;10.40;100.00;98259.78;5035905;28;19939;-48
2023/03/25 05:59:37;;;;;;;;;;;;;;;10.73;100.00;98277.22;5035130;28;19978;-48
2023/03/25 06:02:04;;;;;;;;;;;;;;;10.41;100.00;98282.03;5034873;28;19921;-47
2023/03/25 06:04:32;;;;;;;;;;;;;;;10.70;100.00;98251.59;5034771;28;19921;-48
2023/03/25 06:06:58;;;;;;;;;;;;;;;10.79;100.00;98240.06;5035518;28;19920;-47
2023/03/25 06:09:23;;;;;;;;;;;;;;;11.20;100.00;98240.72;5034468;28;20313;-48
2023/03/25 06:11:52;;;;;;;;;;;;;;;11.49;100.00;98195.53;5035978;28;19913;-49
2023/03/25 06:14:17;;;;;;;;;;;;;;;10.46;100.00;98213.16;5033876;28;19925;-48
2023/03/25 06:16:42;;;;;;;;;;;;;;;10.82;100.00;98245.88;5034899;28;19943;-48
2023/03/25 06:19:08;;;;;;;;;;;;;;;10.19;100.00;98270.94;5034855;28;19913;-48
2023/03/25 06:21:33;;;;;;;;;;;;;;;11.28;100.00;98340.88;5033834;28;20286;-49
2023/03/25 06:24:02;;;;;;;;;;;;;;;10.14;100.00;98296.84;5032916;28;19920;-47
2023/03/25 06:26:27;;;;;;;;;;;;;;;11.00;100.00;98392.81;5035575;28;20389;-48
2023/03/25 06:28:53;;;;;;;;;;;;;;;10.45;100.00;98396.84;5035753;28;19919;-48
2023/03/25 06:31:21;;;;;;;;;;;;;;;10.93;100.00;98441.19;5034677;28;20397;-48
2023/03/25 06:33:46;;;;;;;;;;;;;;;10.62;100.00;98439.88;5033843;28;20269;-47
2023/03/25 06:36:14;;;;;;;;;;;;;;;10.64;100.00;98478.47;5033568;28;19925;-48
2023/03/25 06:38:39;;;;;;;;;;;;;;;10.88;100.00;98467.16;5034787;28;20316;-48
2023/03/25 06:41:06;;;;;;;;;;;;;;;10.86;100.00;98432.06;5035115;28;20190;-48
2023/03/25 06:43:31;;;;;;;;;;;;;;;10.92;100.00;98425.78;5031721;28;20213;-49
2023/03/25 06:45:56;;;;;;;;;;;;;;;11.21;100.00;98424.53;5033015;28;20039;-48
2023/03/25 06:48:21;;;;;;;;;;;;;;;11.59;100.00;98452.97;5034419;28;19956;-49
2023/03/25 06:50:47;;;;;;;;;;;;;;;10.89;100.00;98401.00;5034408;28;19920;-50
2023/03/25 06:53:12;;;;;;;;;;;;;;;11.23;100.00;98377.19;5034578;28;20381;-49
2023/03/25 06:55:37;;;;;;;;;;;;;;;11.14;100.00;98380.16;5033589;28;19960;-48
2023/03/25 06:58:03;;;;;;;;;;;;;;;10.58;100.00;98386.00;5034291;28;20565;-49
2023/03/25 07:00:28;;;;;;;;;;;;;;;10.92;100.00;98452.38;5034921;28;19928;-49
2023/03/25 07:02:54;;;;;;;;;;;;;;;11.39;100.00;98451.25;5034345;28;20775;-48
2023/03/25 07:05:19;;;;;;;;;;;;;;;10.83;100.00;98378.94;5033111;28;20111;-49
2023/03/25 07:07:45;;;;;;;;;;;;;;;11.52;100.00;98416.28;5034572;28;19920;-49
2023/03/25 07:10:11;;;;;;;;;;;;;;;11.49;100.00;98383.75;5033863;28;20409;-49
2023/03/25 07:12:36;;;;;;;;;;;;;;;11.23;100.00;98384.91;5034303;28;20406;-48
2023/03/25 07:15:02;;;;;;;;;;;;;;;11.02;100.00;98380.72;5033540;28;19925;-47
2023/03/25 07:17:27;;;;;;;;;;;;;;;11.66;100.00;98376.97;5034044;28;20138;-50
2023/03/25 07:19:52;;;;;;;;;;;;;;;11.61;100.00;98341.09;5034628;28;20408;-48
2023/03/25 07:22:17;;;;;;;;;;;;;;;11.18;100.00;98375.72;5033710;28;20363;-49
2023/03/25 07:24:44;;;;;;;;;;;;;;;10.23;100.00;98323.94;5032787;28;20209;-48
2023/03/25 07:27:10;;;;;;;;;;;;;;;10.50;100.00;98406.09;5033407;28;20453;-48
2023/03/25 07:29:36;;;;;;;;;;;;;;;10.92;100.00;98412.91;5035183;28;19920;-51
2023/03/25 07:32:01;;;;;;;;;;;;;;;10.95;100.00;98438.53;5037322;28;20073;-49
2023/03/25 07:34:26;;;;;;;;;;;;;;;11.21;100.00;98437.44;5037732;28;19995;-48
2023/03/25 07:36:51;;;;;;;;;;;;;;;11.27;100.00;98445.75;5038574;28;19920;-49
2023/03/25 07:39:17;;;;;;;;;;;;;;;10.53;100.00;98437.69;5037999;28;19943;-49
2023/03/25 07:41:42;;;;;;;;;;;;;;;10.87;100.00;98498.94;5037774;28;20014;-49
2023/03/25 07:44:07;;;;;;;;;;;;;;;10.63;100.00;98543.75;5035185;28;19991;-49
2023/03/25 07:46:33;;;;;;;;;;;;;;;11.24;100.00;98602.25;5039058;28;19963;-48
2023/03/25 07:48:58;;;;;;;;;;;;;;;11.22;100.00;98607.50;5037684;28;19921;-47
2023/03/25 07:51:23;;;;;;;;;;;;;;;10.56;100.00;98606.66;5037772;28;19928;-47
2023/03/25 07:53:48;;;;;;;;;;;;;;;10.14;100.00;98633.06;5036687;28;19924;-48
2023/03/25 07:56:14;;;;;;;;;;;;;;;10.49;100.00;98685.03;5037721;28;19988;-48
2023/03/25 07:58:40;;;;;;;;;;;;;;;10.72;100.00;98721.09;5038726;28;19932;-47
2023/03/25 08:01:06;;;;;;;;;;;;;;;10.47;100.00;98744.31;5037893;28;20308;-49
2023/03/25 08:03:33;;;;;;;;;;;;;;;10.72;100.00;98807.81;5038051;28;20494;-49
2023/03/25 08:05:59;;;;;;;;;;;;;;;10.32;100.00;98804.88;5036550;28;20926;-47
2023/03/25 08:08:24;;;;;;;;;;;;;;;10.63;100.00;98816.72;5034441;28;20330;-48
2023/03/25 08:10:50;;;;;;;;;;;;;;;11.44;100.00;98872.19;5037880;28;19991;-47
2023/03/25 08:13:15;;;;;;;;;;;;;;;11.09;100.00;98820.19;5036850;28;19931;-50
2023/03/25 08:15:40;;;;;;;;;;;;;;;11.06;100.00;98826.31;5036337;28;19921;-48
2023/03/25 08:18:06;;;;;;;;;;;;;;;11.18;100.00;98827.59;5036834;28;19925;-48
2023/03/25 08:20:32;;;;;;;;;;;;;;;11.41;100.00;98794.94;5037558;28;19912;-47
2023/03/25 08:22:57;;;;;;;;;;;;;;;11.75;100.00;98819.44;5034740;28;20016;-47
2023/03/25 08:25:23;;;;;;;;;;;;;;;10.95;100.00;98755.44;5037128;28;20027;-48
2023/03/25 08:27:48;;;;;;;;;;;;;;;11.38;100.00;98758.94;5035558;28;20397;-47
2023/03/25 08:30:14;;;;;;;;;;;;;;;11.52;100.00;98760.09;5038343;28;20661;-47
2023/03/25 08:32:39;;;;;;;;;;;;;;;11.59;100.00;98760.69;5038717;28;19978;-47
2023/03/25 08:35:05;;;;;;;;;;;;;;;11.96;100.00;98710.19;5037056;28;19967;-46
2023/03/25 08:37:34;;;;;;;;;;;;;;;11.77;100.00;98652.47;5037718;28;19979;-47
2023/03/25 08:40:00;;;;;;;;;;;;;;;12.17;100.00;98623.25;5037324;28;19913;-47
2023/03/25 08:42:25;;;;;;;;;;;;;;;12.29;100.00;98575.38;5035694;28;19936;-47
2023/03/25 08:44:50;;;;;;;;;;;;;;;12.03;100.00;98518.03;5034300;28;20378;-47
2023/03/25 08:47:15;;;;;;;;;;;;;;;11.33;100.00;98477.31;5036913;28;20517;-48
2023/03/25 08:49:40;;;;;;;;;;;;;;;11.13;100.00;98440.34;5037535;28;20432;-47
2023/03/25 08:52:07;;;;;;;;;;;;;;;11.95;100.00;98454.78;5036524;28;20507;-47
2023/03/25 08:54:32;;;;;;;;;;;;;;;11.89;100.00;98399.97;5035802;28;19946;-49
2023/03/25 08:56:57;;;;;;;;;;;;;;;11.45;100.00;98324.66;5037317;28;19920;-47
2023/03/25 08:59:23;;;;;;;;;;;;;;;10.46;100.00;98299.84;5035902;28;20671;-49
2023/03/25 09:01:48;;;;;;;;;;;;;;;10.84;100.00;98361.75;5036142;28;20282;-48
2023/03/25 09:04:13;;;;;;;;;;;;;;;11.80;100.00;98366.00;5035583;28;20266;-48
2023/03/25 09:06:39;;;;;;;;;;;;;;;11.84;100.00;98350.31;5037293;28;20405;-48
2023/03/25 09:09:05;;;;;;;;;;;;;;;12.30;100.00;98316.31;5036851;28;19974;-47
2023/03/25 09:11:31;;;;;;;;;;;;;;;11.64;100.00;98249.84;5036958;28;20687;-47
2023/03/25 09:13:56;;;;;;;;;;;;;;;11.77;100.00;98250.06;5033192;28;19974;-48
2023/03/25 09:16:21;;;;;;;;;;;;;;;12.31;100.00;98261.97;5035605;28;19920;-48
2023/03/25 09:18:46;;;;;;;;;;;;;;;12.22;100.00;98195.34;5036300;28;20191;-48
2023/03/25 09:21:12;;;;;;;;;;;;;;;12.44;100.00;98169.25;5034421;28;20158;-51
2023/03/25 09:23:37;;;;;;;;;;;;;;;11.98;100.00;98135.50;5036256;28;19920;-49
2023/03/25 09:26:04;;;;;;;;;;;;;;;12.86;100.00;98117.91;5035761;28;19974;-49
2023/03/25 09:28:29;;;;;;;;;;;;;;;11.76;100.00;98070.41;5036019;28;19963;-49
2023/03/25 09:30:55;;;;;;;;;;;;;;;11.49;100.00;98088.97;5034534;28;19971;-50
2023/03/25 09:33:20;;;;;;;;;;;;;;;11.42;100.00;98100.50;5035115;28;20039;-49
2023/03/25 09:35:46;;;;;;;;;;;;;;;12.24;100.00;98135.88;5033775;28;20037;-49
2023/03/25 09:38:11;;;;;;;;;;;;;;;12.26;100.00;98103.09;5036129;28;20039;-53
2023/03/25 09:40:37;;;;;;;;;;;;;;;12.69;100.00;98039.59;5036194;28;19975;-50
2023/03/25 09:43:09;;;;;;;;;;;;;;;12.19;100.00;97985.59;5034693;28;19921;-51
2023/03/25 09:45:45;;;;;;;;;;;;;;;12.71;100.00;97959.44;5032317;28;20007;-49
2023/03/25 09:48:25;;;;;;;;;;;;;;;11.93;100.00;97947.41;5034089;28;19927;-52
2023/03/25 09:50:50;;;;;;;;;;;;;;;12.03;100.00;97932.22;5035502;28;19924;-51
2023/03/25 09:53:18;;;;;;;;;;;;;;;12.67;100.00;97907.09;5034900;28;20531;-51
2023/03/25 09:55:43;;;;;;;;;;;;;;;12.33;100.00;97903.06;5034545;28;19921;-55
2023/03/25 09:58:15;;;;;;;;;;;;;;;11.71;100.00;97900.44;5034470;28;19974;-51
2023/03/25 10:00:40;;;;;;;;;;;;;;;13.07;100.00;97919.44;5037072;28;19960;-52
2023/03/25 10:03:12;;;;;;;;;;;;;;;12.65;100.00;97905.53;5037124;28;19963;-53
2023/03/25 10:05:56;;;;;;;;;;;;;;;12.90;100.00;97879.09;5035460;28;19971;-52
2023/03/25 10:08:31;;;;;;;;;;;;;;;12.69;100.00;97868.28;5038313;28;19989;-56
2023/03/25 10:10:56;;;;;;;;;;;;;;;12.29;100.00;97878.31;5037211;28;20356;-51
2023/03/25 10:13:33;;;;;;;;;;;;;;;12.18;100.00;97925.41;5034966;28;19931;-50
2023/03/25 10:16:15;;;;;;;;;;;;;;;12.50;100.00;97923.59;5033798;28;19917;-52
2023/03/25 10:18:52;;;;;;;;;;;;;;;12.59;100.00;97929.13;5036084;28;19921;-50
2023/03/25 10:21:24;;;;;;;;;;;;;;;12.82;100.00;97901.97;5036120;28;19924;-53
2023/03/25 10:23:54;;;;;;;;;;;;;;;12.91;100.00;97889.34;5033349;28;19920;-51
2023/03/25 10:26:19;;;;;;;;;;;;;;;12.94;100.00;97884.00;5033556;28;19921;-51
2023/03/25 10:28:48;;;;;;;;;;;;;;;12.59;100.00;97903.31;5036940;28;19943;-50
2023/03/25 10:31:15;;;;;;;;;;;;;;;12.80;100.00;97907.25;5033317;28;19916;-51
2023/03/25 10:33:50;;;;;;;;;;;;;;;12.68;100.00;97918.25;5017372;28;19953;-51
2023/03/25 10:36:17;;;;;;;;;;;;;;;12.14;100.00;97890.34;5034521;28;19913;-54
2023/03/25 10:38:44;;;;;;;;;;;;;;;12.41;100.00;97918.94;5035821;28;20301;-52
2023/03/25 10:41:25;;;;;;;;;;;;;;;12.11;100.00;97909.44;5034223;28;20590;-54
2023/03/25 10:43:51;;;;;;;;;;;;;;;11.99;100.00;97930.72;5032500;28;20010;-53
2023/03/25 10:46:19;;;;;;;;;;;;;;;12.61;100.00;97948.78;5034305;28;20694;-50
2023/03/25 10:48:45;;;;;;;;;;;;;;;12.81;100.00;97924.38;5035825;28;20611;-51
2023/03/25 10:51:20;;;;;;;;;;;;;;;13.24;100.00;97927.03;5034922;28;19917;-53
2023/03/25 10:53:51;;;;;;;;;;;;;;;12.65;100.00;97872.78;5033475;28;20333;-51
2023/03/25 10:56:37;;;;;;;;;;;;;;;12.84;100.00;97877.72;5035390;28;19921;-52
2023/03/25 10:59:06;;;;;;;;;;;;;;;12.91;100.00;97897.09;5035676;28;19917;-53
2023/03/25 11:01:36;;;;;;;;;;;;;;;13.06;100.00;97876.44;5034474;28;19928;-52
2023/03/25 11:04:02;;;;;;;;;;;;;;;12.38;100.00;97913.94;5035583;28;19921;-54
2023/03/25 11:06:29;;;;;;;;;;;;;;;12.30;100.00;97911.81;5038768;28;19969;-52
2023/03/25 11:09:06;;;;;;;;;;;;;;;12.76;100.00;97918.66;5037470;28;19928;-54
2023/03/25 11:11:32;;;;;;;;;;;;;;;12.88;100.00;97924.88;5038460;28;19924;-54
2023/03/25 11:13:57;;;;;;;;;;;;;;;13.69;100.00;97881.19;5039830;28;20142;-55
2023/03/25 11:16:23;;;;;;;;;;;;;;;12.22;100.00;97833.13;5038293;28;19913;-53
2023/03/25 11:18:48;;;;;;;;;;;;;;;12.98;100.00;97869.97;5038696;28;20003;-55
2023/03/25 11:21:13;;;;;;;;;;;;;;;13.93;100.00;97847.75;5037052;28;20036;-54
2023/03/25 11:23:42;;;;;;;;;;;;;;;12.94;100.00;97816.81;5038530;28;20057;-53
2023/03/25 11:26:12;;;;;;;;;;;;;;;13.22;100.00;97840.97;5038529;28;20174;-54
2023/03/25 11:28:41;;;;;;;;;;;;;;;13.78;100.00;97817.69;5037955;28;19917;-53
2023/03/25 11:31:08;;;;;;;;;;;;;;;12.72;100.00;97808.69;5021073;28;19921;-54
2023/03/25 11:33:35;;;;;;;;;;;;;;;13.46;100.00;97823.16;5038682;28;19928;-53
2023/03/25 11:36:11;;;;;;;;;;;;;;;14.10;100.00;97794.06;5039331;28;20125;-51
2023/03/25 11:38:36;;;;;;;;;;;;;;;13.55;100.00;97793.28;5038938;28;19927;-51
2023/03/25 11:41:02;;;;;;;;;;;;;;;14.36;100.00;97763.84;5038952;28;19916;-54
2023/03/25 11:43:32;;;;;;;;;;;;;;;14.37;100.00;97755.97;5036213;28;20134;-54
2023/03/25 11:46:05;;;;;;;;;;;;;;;13.81;100.00;97739.84;5036417;28;19916;-53
2023/03/25 11:48:31;;;;;;;;;;;;;;;13.71;100.00;97769.84;5038056;28;19921;-53
2023/03/25 11:50:56;;;;;;;;;;;;;;;13.05;100.00;97779.16;5037274;28;19970;-53
2023/03/25 11:53:22;;;;;;;;;;;;;;;13.04;100.00;97785.22;5036709;28;20328;-54
2023/03/25 11:55:50;;;;;;;;;;;;;;;12.95;100.00;97805.56;5037272;28;20287;-55
2023/03/25 11:58:16;;;;;;;;;;;;;;;14.33;100.00;97810.69;5037737;28;19920;-52
2023/03/25 12:00:45;;;;;;;;;;;;;;;12.02;100.00;97824.78;5038226;28;20508;-53
2023/03/25 12:03:10;;;;;;;;;;;;;;;13.27;100.00;97859.59;5038381;28;20377;-53
2023/03/25 12:05:35;;;;;;;;;;;;;;;12.34;100.00;97931.38;5037561;28;19932;-54
2023/03/25 12:08:03;;;;;;;;;;;;;;;11.65;100.00;97972.97;5037187;28;19917;-51
2023/03/25 12:10:57;;;;;;;;;;;;;;;13.52;100.00;98096.09;5037010;28;19948;-54
2023/03/25 12:13:42;;;;;;;;;;;;;;;12.60;100.00;98116.78;5028750;28;20386;-54
2023/03/25 12:16:23;;;;;;;;;;;;;;;13.93;100.00;98162.69;5038219;28;19962;-53
2023/03/25 12:19:04;;;;;;;;;;;;;;;12.75;100.00;98146.94;5036815;28;20397;-53
2023/03/25 12:21:32;;;;;;;;;;;;;;;13.76;100.00;98092.06;5035850;28;19917;-52
2023/03/25 12:24:16;;;;;;;;;;;;;;;12.31;100.00;98039.13;5037288;28;19927;-52
2023/03/25 12:26:59;;;;;;;;;;;;;;;13.05;100.00;98102.22;5038171;28;19959;-53
2023/03/25 12:29:35;;;;;;;;;;;;;;;13.69;100.00;98139.94;5036318;28;19917;-52
2023/03/25 12:32:00;;;;;;;;;;;;;;;14.29;100.00;98055.25;5038865;28;20500;-51
2023/03/25 12:34:25;;;;;;;;;;;;;;;13.13;100.00;98004.38;5036509;28;19956;-53
2023/03/25 12:36:53;;;;;;;;;;;;;;;13.09;100.00;98101.13;5036073;28;20310;-51
2023/03/25 12:39:28;;;;;;;;;;;;;;;11.93;100.00;98147.81;5036504;28;19971;-51